Time,TemperatureF,DewpointF,PressureIn,WindDirection,WindDirectionDegrees,WindSpeedMPH,WindSpeedGustMPH,Humidity,HourlyPrecipIn,Conditions,Clouds,dailyrainin,SoftwareType,DateUTC
2013-01-19 00:01:00,21.8,7.3,30.32,South,173,2.0,2.0,53,0.00,,CLR,0.00,VWS V14.00,2013-01-19 05:01:00,
2013-01-19 00:02:00,21.9,7.4,30.32,South,173,0.0,1.0,53,0.00,,CLR,0.00,VWS V14.00,2013-01-19 05:02:00,
2013-01-19 00:03:00,21.9,7.4,30.32,South,173,0.0,3.0,53,0.00,,CLR,0.00,VWS V14.00,2013-01-19 05:03:00,
2013-01-19 00:08:00,22.1,7.6,30.32,South,171,5.0,5.0,53,0.00,,CLR,0.00,VWS V14.00,2013-01-19 05:08:00,
2013-01-19 00:13:00,22.2,7.7,30.32,WSW,237,0.0,1.0,53,0.00,,CLR,0.00,VWS V14.00,2013-01-19 05:13:00,
2013-01-19 00:19:00,22.2,7.7,30.31,South,169,0.0,2.0,53,0.00,,CLR,0.00,VWS V14.00,2013-01-19 05:19:00,
2013-01-19 00:24:00,22.2,8.1,30.31,SSE,157,0.0,4.0,54,0.00,,CLR,0.00,VWS V14.00,2013-01-19 05:24:00,
2013-01-19 01:30:00,23.9,10.1,30.28,SSE,155,0.0,0.0,55,0.00,,CLR,0.00,VWS V14.00,2013-01-19 06:30:00,
2013-01-19 01:35:00,24.1,10.7,30.28,SSW,213,0.0,1.0,56,0.00,,CLR,0.00,VWS V14.00,2013-01-19 06:35:00,
2013-01-19 01:40:00,24.1,10.3,30.28,SSW,194,2.0,2.0,55,0.00,,CLR,0.00,VWS V14.00,2013-01-19 06:40:00,
2013-01-19 01:45:00,24.2,10.4,30.29,WSW,252,4.0,4.0,55,0.00,,CLR,0.00,VWS V14.00,2013-01-19 06:45:00,
2013-01-19 01:50:00,24.4,10.6,30.29,SSE,159,2.0,2.0,55,0.00,,CLR,0.00,VWS V14.00,2013-01-19 06:50:00,
2013-01-19 01:55:00,24.5,10.2,30.29,SE,131,0.0,1.0,54,0.00,,CLR,0.00,VWS V14.00,2013-01-19 06:55:00,
2013-01-19 02:00:00,24.5,10.7,30.29,SSE,147,2.0,3.0,55,0.00,,OVC090,0.00,VWS V14.00,2013-01-19 07:00:00,
2013-01-19 02:05:00,24.7,10.9,30.29,West,261,2.0,2.0,55,0.00,,OVC090,0.00,VWS V14.00,2013-01-19 07:05:00,
2013-01-19 02:10:00,24.7,10.9,30.29,SW,223,2.0,3.0,55,0.00,,OVC090,0.00,VWS V14.00,2013-01-19 07:10:00,
2013-01-19 02:15:00,24.8,10.9,30.28,WSW,250,0.0,2.0,55,0.00,,OVC090,0.00,VWS V14.00,2013-01-19 07:15:00,
2013-01-19 02:20:00,25.0,11.1,30.28,SW,232,1.0,5.0,55,0.00,,OVC090,0.00,VWS V14.00,2013-01-19 07:20:00,
2013-01-19 02:25:00,25.0,11.1,30.28,SSW,196,1.0,3.0,55,0.00,,OVC090,0.00,VWS V14.00,2013-01-19 07:25:00,
2013-01-19 02:30:00,25.1,11.2,30.28,SSE,160,4.0,4.0,55,0.00,,OVC090,0.00,VWS V14.00,2013-01-19 07:30:00,
2013-01-19 02:35:00,25.3,11.4,30.28,WSW,248,4.0,4.0,55,0.00,,OVC090,0.00,VWS V14.00,2013-01-19 07:35:00,
2013-01-19 02:40:00,25.3,11.0,30.28,SW,215,0.0,5.0,54,0.00,,OVC090,0.00,VWS V14.00,2013-01-19 07:40:00,
2013-01-19 02:45:00,25.4,11.5,30.27,SW,232,1.0,5.0,55,0.00,,OVC110,0.00,VWS V14.00,2013-01-19 07:45:00,
2013-01-19 02:50:00,25.3,11.4,30.27,SSW,201,1.0,2.0,55,0.00,,OVC110,0.00,VWS V14.00,2013-01-19 07:50:00,
2013-01-19 02:55:00,25.3,11.4,30.27,SW,215,4.0,9.0,55,0.00,,OVC110,0.00,VWS V14.00,2013-01-19 07:55:00,
2013-01-19 03:00:00,25.4,11.1,30.27,SW,215,3.0,6.0,54,0.00,,OVC110,0.00,VWS V14.00,2013-01-19 08:00:00,
2013-01-19 03:06:00,25.4,11.1,30.27,WNW,285,2.0,5.0,54,0.00,,OVC110,0.00,VWS V14.00,2013-01-19 08:06:00,
2013-01-19 03:11:00,25.4,11.1,30.27,SW,225,0.0,2.0,54,0.00,,OVC110,0.00,VWS V14.00,2013-01-19 08:11:00,
2013-01-19 03:16:00,25.6,10.9,30.26,WSW,240,0.0,3.0,53,0.00,,OVC110,0.00,VWS V14.00,2013-01-19 08:16:00,
2013-01-19 03:21:00,25.7,10.9,30.26,WSW,240,2.0,2.0,53,0.00,,OVC110,0.00,VWS V14.00,2013-01-19 08:21:00,
2013-01-19 03:26:00,25.7,10.9,30.26,WSW,244,2.0,4.0,53,0.00,,OVC110,0.00,VWS V14.00,2013-01-19 08:26:00,
2013-01-19 03:31:00,25.7,10.9,30.27,SW,227,3.0,10.0,53,0.00,,OVC110,0.00,VWS V14.00,2013-01-19 08:31:00,
2013-01-19 03:36:00,25.8,11.0,30.27,WSW,244,2.0,3.0,53,0.00,,OVC110,0.00,VWS V14.00,2013-01-19 08:36:00,
2013-01-19 03:41:00,26.0,11.2,30.27,SE,138,1.0,3.0,53,0.00,,OVC110,0.00,VWS V14.00,2013-01-19 08:41:00,
2013-01-19 03:46:00,26.0,10.8,30.25,SSE,164,0.0,5.0,52,0.00,,SCT110,0.00,VWS V14.00,2013-01-19 08:46:00,
2013-01-19 03:51:00,26.0,11.2,30.25,South,182,4.0,5.0,53,0.00,,SCT110,0.00,VWS V14.00,2013-01-19 08:51:00,
2013-01-19 03:56:00,26.0,10.8,30.25,SW,224,0.0,2.0,52,0.00,,SCT110,0.00,VWS V14.00,2013-01-19 08:56:00,
2013-01-19 04:01:00,26.0,10.8,30.24,SSE,148,1.0,3.0,52,0.00,,SCT110,0.00,VWS V14.00,2013-01-19 09:01:00,
2013-01-19 04:06:00,26.1,10.9,30.24,South,190,0.0,2.0,52,0.00,,SCT110,0.00,VWS V14.00,2013-01-19 09:06:00,
2013-01-19 04:11:00,26.1,11.3,30.24,SSE,157,2.0,5.0,53,0.00,,SCT110,0.00,VWS V14.00,2013-01-19 09:11:00,
2013-01-19 04:16:00,26.3,11.5,30.24,SW,235,0.0,2.0,53,0.00,,SCT110,0.00,VWS V14.00,2013-01-19 09:16:00,
2013-01-19 04:22:00,26.3,11.5,30.24,SE,126,4.0,4.0,53,0.00,,SCT110,0.00,VWS V14.00,2013-01-19 09:22:00,
2013-01-19 04:27:00,26.3,11.5,30.24,South,190,3.0,3.0,53,0.00,,SCT110,0.00,VWS V14.00,2013-01-19 09:27:00,
2013-01-19 04:32:00,26.3,11.5,30.23,SW,235,2.0,3.0,53,0.00,,SCT110,0.00,VWS V14.00,2013-01-19 09:32:00,
2013-01-19 04:37:00,26.3,11.5,30.23,South,180,0.0,2.0,53,0.00,,SCT110,0.00,VWS V14.00,2013-01-19 09:37:00,
2013-01-19 04:42:00,26.4,11.6,30.23,ESE,111,5.0,9.0,53,0.00,,SCT110,0.00,VWS V14.00,2013-01-19 09:42:00,
2013-01-19 04:47:00,26.4,11.6,30.22,WNW,290,2.0,7.0,53,0.00,,CLR,0.00,VWS V14.00,2013-01-19 09:47:00,
2013-01-19 04:52:00,26.6,11.8,30.22,SE,132,4.0,6.0,53,0.00,,CLR,0.00,VWS V14.00,2013-01-19 09:52:00,
2013-01-19 04:57:00,26.6,11.8,30.22,SSE,159,1.0,3.0,53,0.00,,CLR,0.00,VWS V14.00,2013-01-19 09:57:00,
2013-01-19 05:02:00,26.7,11.9,30.21,SSE,158,2.0,4.0,53,0.00,,CLR,0.00,VWS V14.00,2013-01-19 10:02:00,
2013-01-19 05:07:00,26.7,12.3,30.21,South,170,2.0,6.0,54,0.00,,CLR,0.00,VWS V14.00,2013-01-19 10:07:00,
2013-01-19 05:12:00,26.7,12.7,30.21,SE,138,4.0,6.0,55,0.00,,CLR,0.00,VWS V14.00,2013-01-19 10:12:00,
2013-01-19 05:17:00,26.9,12.9,30.21,SSW,213,1.0,4.0,55,0.00,,CLR,0.00,VWS V14.00,2013-01-19 10:17:00,
2013-01-19 05:22:00,26.9,12.9,30.21,SW,227,1.0,3.0,55,0.00,,CLR,0.00,VWS V14.00,2013-01-19 10:22:00,
2013-01-19 05:27:00,27.0,13.0,30.21,ESE,118,1.0,9.0,55,0.00,,CLR,0.00,VWS V14.00,2013-01-19 10:27:00,
2013-01-19 05:32:00,27.0,13.4,30.21,SW,215,3.0,4.0,56,0.00,,CLR,0.00,VWS V14.00,2013-01-19 10:32:00,
2013-01-19 05:37:00,27.0,13.4,30.21,SSE,160,1.0,2.0,56,0.00,,CLR,0.00,VWS V14.00,2013-01-19 10:37:00,
2013-01-19 05:42:00,27.2,14.0,30.21,SSE,149,4.0,4.0,57,0.00,,CLR,0.00,VWS V14.00,2013-01-19 10:42:00,
2013-01-19 05:47:00,27.3,14.1,30.20,SW,223,2.0,12.0,57,0.00,,BKN110,0.00,VWS V14.00,2013-01-19 10:47:00,
2013-01-19 05:52:00,27.5,14.3,30.20,SSW,210,2.0,4.0,57,0.00,,BKN110,0.00,VWS V14.00,2013-01-19 10:52:00,
2013-01-19 05:57:00,27.6,14.8,30.20,SW,223,1.0,4.0,58,0.00,,BKN110,0.00,VWS V14.00,2013-01-19 10:57:00,
2013-01-19 06:02:00,27.6,14.8,30.20,SW,229,0.0,3.0,58,0.00,,BKN110,0.00,VWS V14.00,2013-01-19 11:02:00,
2013-01-19 06:07:00,27.8,15.4,30.20,SSW,194,2.0,2.0,59,0.00,,BKN110,0.00,VWS V14.00,2013-01-19 11:07:00,
2013-01-19 06:12:00,27.8,15.4,30.20,SSE,153,8.0,8.0,59,0.00,,BKN110,0.00,VWS V14.00,2013-01-19 11:12:00,
2013-01-19 07:48:00,29.0,18.7,30.18,WSW,242,1.0,6.0,65,0.00,,OVC120,0.00,VWS V14.00,2013-01-19 12:48:00,
2013-01-19 07:49:00,29.0,18.7,30.18,WSW,242,2.0,6.0,65,0.00,,OVC120,0.00,VWS V14.00,2013-01-19 12:49:00,
2013-01-19 07:54:00,29.0,18.7,30.18,SE,127,2.0,3.0,65,0.00,,OVC120,0.00,VWS V14.00,2013-01-19 12:54:00,
2013-01-19 07:59:00,29.0,18.7,30.18,WSW,242,3.0,3.0,65,0.00,,OVC120,0.00,VWS V14.00,2013-01-19 12:59:00,
2013-01-19 08:04:00,29.1,19.2,30.19,South,188,2.0,3.0,66,0.00,,OVC120,0.00,VWS V14.00,2013-01-19 13:04:00,
2013-01-19 08:09:00,29.3,19.4,30.19,SSW,210,2.0,2.0,66,0.00,,OVC120,0.00,VWS V14.00,2013-01-19 13:09:00,
2013-01-19 08:14:00,29.5,19.2,30.19,SW,220,2.0,6.0,65,0.00,,OVC120,0.00,VWS V14.00,2013-01-19 13:14:00,
2013-01-19 08:19:00,29.8,19.5,30.18,WSW,251,2.0,6.0,65,0.00,,OVC120,0.00,VWS V14.00,2013-01-19 13:19:00,
2013-01-19 08:24:00,30.0,19.7,30.18,South,185,2.0,7.0,65,0.00,,OVC120,0.00,VWS V14.00,2013-01-19 13:24:00,
2013-01-19 08:29:00,30.3,20.0,30.18,South,169,0.0,2.0,65,0.00,,OVC120,0.00,VWS V14.00,2013-01-19 13:29:00,
2013-01-19 08:34:00,30.6,20.2,30.18,WSW,247,2.0,4.0,65,0.00,,OVC120,0.00,VWS V14.00,2013-01-19 13:34:00,
2013-01-19 08:39:00,30.9,20.2,30.18,South,182,3.0,6.0,64,0.00,,OVC120,0.00,VWS V14.00,2013-01-19 13:39:00,
2013-01-19 08:44:00,31.0,20.3,30.18,SW,221,3.0,4.0,64,0.00,,OVC120,0.00,VWS V14.00,2013-01-19 13:44:00,
2013-01-19 08:49:00,31.2,20.5,30.18,SSW,207,2.0,2.0,64,0.00,,OVC110,0.00,VWS V14.00,2013-01-19 13:49:00,
2013-01-19 08:54:00,31.3,20.5,30.18,WSW,240,0.0,10.0,64,0.00,,OVC110,0.00,VWS V14.00,2013-01-19 13:54:00,
2013-01-19 08:59:00,31.5,20.7,30.18,SW,221,1.0,5.0,64,0.00,,OVC110,0.00,VWS V14.00,2013-01-19 13:59:00,
2013-01-19 09:04:00,31.6,20.8,30.19,SW,221,2.0,5.0,64,0.00,,OVC110,0.00,VWS V14.00,2013-01-19 14:04:00,
2013-01-19 09:09:00,31.8,21.0,30.19,SSW,210,1.0,2.0,64,0.00,,OVC110,0.00,VWS V14.00,2013-01-19 14:09:00,
2013-01-19 09:14:00,31.8,21.0,30.19,SSW,209,2.0,2.0,64,0.00,,OVC110,0.00,VWS V14.00,2013-01-19 14:14:00,
2013-01-19 09:19:00,31.9,21.1,30.18,SSE,153,2.0,5.0,64,0.00,,OVC110,0.00,VWS V14.00,2013-01-19 14:19:00,
2013-01-19 09:24:00,32.1,20.9,30.18,South,186,1.0,2.0,63,0.00,,OVC110,0.00,VWS V14.00,2013-01-19 14:24:00,
2013-01-19 09:29:00,32.2,21.0,30.18,SE,128,7.0,7.0,63,0.00,,OVC110,0.00,VWS V14.00,2013-01-19 14:29:00,
2013-01-19 09:34:00,32.4,21.6,30.17,SSE,150,2.0,3.0,64,0.00,,OVC110,0.00,VWS V14.00,2013-01-19 14:34:00,
2013-01-19 09:39:00,32.4,21.2,30.17,WSW,246,1.0,4.0,63,0.00,,OVC110,0.00,VWS V14.00,2013-01-19 14:39:00,
2013-01-19 09:44:00,32.7,21.5,30.17,SE,134,1.0,3.0,63,0.00,,OVC110,0.00,VWS V14.00,2013-01-19 14:44:00,
2013-01-19 09:49:00,32.8,21.6,30.17,South,175,1.0,2.0,63,0.00,,CLR,0.00,VWS V14.00,2013-01-19 14:49:00,
2013-01-19 09:54:00,32.9,21.7,30.17,SE,140,3.0,4.0,63,0.00,,CLR,0.00,VWS V14.00,2013-01-19 14:54:00,
2013-01-19 09:59:00,33.1,21.9,30.17,SSE,151,1.0,4.0,63,0.00,,CLR,0.00,VWS V14.00,2013-01-19 14:59:00,
2013-01-19 10:04:00,33.2,21.6,30.17,SSE,157,1.0,4.0,62,0.00,,CLR,0.00,VWS V14.00,2013-01-19 15:04:00,
2013-01-19 10:09:00,33.4,21.8,30.17,SSE,156,0.0,3.0,62,0.00,,CLR,0.00,VWS V14.00,2013-01-19 15:09:00,
2013-01-19 10:14:00,33.5,21.9,30.16,South,180,0.0,4.0,62,0.00,,CLR,0.00,VWS V14.00,2013-01-19 15:14:00,
2013-01-19 10:19:00,33.7,22.1,30.16,SW,235,2.0,3.0,62,0.00,,CLR,0.00,VWS V14.00,2013-01-19 15:19:00,
2013-01-19 10:25:00,34.0,22.0,30.16,SSW,213,1.0,3.0,61,0.00,,CLR,0.00,VWS V14.00,2013-01-19 15:25:00,
2013-01-19 10:30:00,34.1,22.1,30.15,SSW,199,1.0,6.0,61,0.00,,CLR,0.00,VWS V14.00,2013-01-19 15:30:00,
2013-01-19 10:35:00,34.4,22.4,30.15,SSW,206,2.0,2.0,61,0.00,,CLR,0.00,VWS V14.00,2013-01-19 15:35:00,
2013-01-19 10:40:00,34.6,22.5,30.15,SSE,157,0.0,3.0,61,0.00,,CLR,0.00,VWS V14.00,2013-01-19 15:40:00,
2013-01-19 10:45:00,34.7,22.6,30.14,SSE,150,2.0,4.0,61,0.00,,CLR,0.00,VWS V14.00,2013-01-19 15:45:00,
2013-01-19 10:50:00,34.7,22.2,30.14,SE,126,3.0,8.0,60,0.00,,CLR,0.00,VWS V14.00,2013-01-19 15:50:00,
2013-01-19 10:55:00,34.9,22.4,30.14,SW,234,2.0,3.0,60,0.00,,CLR,0.00,VWS V14.00,2013-01-19 15:55:00,
2013-01-19 11:00:00,34.9,22.4,30.13,SE,140,1.0,2.0,60,0.00,,CLR,0.00,VWS V14.00,2013-01-19 16:00:00,
2013-01-19 11:05:00,35.0,22.9,30.13,SW,235,0.0,1.0,61,0.01,,CLR,0.01,VWS V14.00,2013-01-19 16:05:00,
2013-01-19 11:10:00,35.2,22.7,30.13,SW,221,2.0,3.0,60,0.01,,CLR,0.01,VWS V14.00,2013-01-19 16:10:00,
2013-01-19 11:15:00,35.3,23.2,30.12,SSE,157,3.0,4.0,61,0.01,,CLR,0.01,VWS V14.00,2013-01-19 16:15:00,
2013-01-19 11:20:00,35.5,23.0,30.12,WNW,299,0.0,3.0,60,0.01,,CLR,0.01,VWS V14.00,2013-01-19 16:20:00,
2013-01-19 11:25:00,35.9,23.4,30.12,SE,126,2.0,4.0,60,0.01,,CLR,0.01,VWS V14.00,2013-01-19 16:25:00,
2013-01-19 11:30:00,36.0,23.1,30.10,SSE,152,5.0,5.0,59,0.01,,CLR,0.01,VWS V14.00,2013-01-19 16:30:00,
2013-01-19 11:35:00,36.2,23.7,30.10,SW,223,2.0,6.0,60,0.01,,CLR,0.01,VWS V14.00,2013-01-19 16:35:00,
2013-01-19 11:40:00,36.3,23.8,30.10,SW,227,2.0,5.0,60,0.01,,CLR,0.01,VWS V14.00,2013-01-19 16:40:00,
2013-01-19 11:45:00,36.6,23.6,30.09,South,175,1.0,3.0,59,0.01,,CLR,0.01,VWS V14.00,2013-01-19 16:45:00,
2013-01-19 11:50:00,36.8,23.8,30.09,SSE,154,7.0,7.0,59,0.01,,CLR,0.01,VWS V14.00,2013-01-19 16:50:00,
2013-01-19 11:55:00,36.8,23.4,30.09,WSW,248,3.0,6.0,58,0.02,,CLR,0.02,VWS V14.00,2013-01-19 16:55:00,
2013-01-19 12:00:00,36.6,23.6,30.07,SSW,201,2.0,4.0,59,0.02,,CLR,0.02,VWS V14.00,2013-01-19 17:00:00,
2013-01-19 12:05:00,36.6,23.6,30.07,SW,216,1.0,2.0,59,0.02,,CLR,0.02,VWS V14.00,2013-01-19 17:05:00,
2013-01-19 12:11:00,36.8,23.8,30.07,SE,139,2.0,3.0,59,0.02,,CLR,0.02,VWS V14.00,2013-01-19 17:11:00,
2013-01-19 12:17:00,36.8,23.8,30.06,SE,135,2.0,3.0,59,0.01,,CLR,0.02,VWS V14.00,2013-01-19 17:17:00,
2013-01-19 12:22:00,36.9,23.9,30.06,SW,230,0.0,4.0,59,0.01,,CLR,0.02,VWS V14.00,2013-01-19 17:22:00,
2013-01-19 12:27:00,37.0,24.0,30.06,South,175,0.0,5.0,59,0.01,,CLR,0.02,VWS V14.00,2013-01-19 17:27:00,
2013-01-19 12:32:00,37.0,23.6,30.05,SSW,205,1.0,4.0,58,0.01,,CLR,0.02,VWS V14.00,2013-01-19 17:32:00,
2013-01-19 12:37:00,37.2,23.8,30.05,SW,234,1.0,4.0,58,0.01,,CLR,0.02,VWS V14.00,2013-01-19 17:37:00,
2013-01-19 12:42:00,37.3,23.5,30.05,SW,230,1.0,3.0,57,0.01,,CLR,0.02,VWS V14.00,2013-01-19 17:42:00,
2013-01-19 12:48:00,37.5,23.7,30.04,WSW,246,3.0,3.0,57,0.01,,CLR,0.02,VWS V14.00,2013-01-19 17:48:00,
2013-01-19 12:53:00,37.6,23.8,30.04,West,261,0.0,1.0,57,0.01,,CLR,0.02,VWS V14.00,2013-01-19 17:53:00,
2013-01-19 12:58:00,37.9,24.0,30.04,South,169,2.0,3.0,57,0.02,,CLR,0.03,VWS V14.00,2013-01-19 17:58:00,
2013-01-19 13:03:00,38.2,23.9,30.03,West,261,2.0,3.0,56,0.01,,CLR,0.03,VWS V14.00,2013-01-19 18:03:00,
2013-01-19 13:09:00,38.6,24.7,30.03,South,182,1.0,2.0,57,0.01,,CLR,0.03,VWS V14.00,2013-01-19 18:09:00,
2013-01-19 13:14:00,38.8,24.5,30.03,South,174,2.0,5.0,56,0.01,,CLR,0.03,VWS V14.00,2013-01-19 18:14:00,
2013-01-19 13:19:00,39.2,24.4,30.02,SW,225,2.0,3.0,55,0.01,,CLR,0.03,VWS V14.00,2013-01-19 18:19:00,
2013-01-19 13:24:00,39.8,24.5,30.02,WSW,251,2.0,3.0,54,0.01,,CLR,0.03,VWS V14.00,2013-01-19 18:24:00,
2013-01-19 13:29:00,40.3,24.5,30.02,West,271,0.0,3.0,53,0.01,,CLR,0.03,VWS V14.00,2013-01-19 18:29:00,
2013-01-19 13:34:00,40.6,24.4,30.02,South,186,2.0,5.0,52,0.01,,CLR,0.03,VWS V14.00,2013-01-19 18:34:00,
2013-01-19 13:39:00,40.3,25.0,30.02,WSW,244,2.0,7.0,54,0.01,,CLR,0.03,VWS V14.00,2013-01-19 18:39:00,
2013-01-19 13:45:00,40.2,24.5,30.02,South,171,1.0,2.0,53,0.02,,CLR,0.04,VWS V14.00,2013-01-19 18:45:00,
2013-01-19 13:50:00,40.5,24.3,30.02,SSW,209,3.0,3.0,52,0.02,,BKN120,0.04,VWS V14.00,2013-01-19 18:50:00,
2013-01-19 13:55:00,41.1,25.3,30.02,WSW,249,0.0,2.0,53,0.02,,BKN120,0.04,VWS V14.00,2013-01-19 18:55:00,
2013-01-19 14:01:00,41.3,25.0,30.01,WSW,252,3.0,3.0,52,0.01,,BKN120,0.04,VWS V14.00,2013-01-19 19:01:00,
2013-01-19 14:07:00,41.6,24.8,30.01,SW,233,0.0,2.0,51,0.01,,BKN120,0.04,VWS V14.00,2013-01-19 19:07:00,
2013-01-19 14:12:00,41.8,24.5,30.01,SW,229,2.0,3.0,50,0.01,,BKN120,0.04,VWS V14.00,2013-01-19 19:12:00,
2013-01-19 14:17:00,42.1,24.8,30.00,South,175,1.0,2.0,50,0.01,,BKN120,0.04,VWS V14.00,2013-01-19 19:17:00,
2013-01-19 14:25:00,42.2,25.4,30.00,South,183,0.0,2.0,51,0.01,,BKN120,0.04,VWS V14.00,2013-01-19 19:25:00,
2013-01-19 14:30:00,42.5,25.2,29.99,SE,138,2.0,2.0,50,0.02,,BKN120,0.05,VWS V14.00,2013-01-19 19:30:00,
2013-01-19 14:36:00,42.6,24.8,29.99,SW,215,1.0,3.0,49,0.02,,BKN120,0.05,VWS V14.00,2013-01-19 19:36:00,
2013-01-19 14:42:00,42.5,24.7,29.99,SW,234,1.0,5.0,49,0.02,,BKN120,0.05,VWS V14.00,2013-01-19 19:42:00,
2013-01-19 14:47:00,42.5,25.2,29.99,SSE,149,1.0,2.0,50,0.01,,CLR,0.05,VWS V14.00,2013-01-19 19:47:00,
2013-01-19 14:53:00,42.8,25.5,29.99,West,261,3.0,4.0,50,0.01,,CLR,0.05,VWS V14.00,2013-01-19 19:53:00,
2013-01-19 14:58:00,42.8,25.0,29.99,SSW,200,3.0,4.0,49,0.01,,CLR,0.05,VWS V14.00,2013-01-19 19:58:00,
2013-01-19 15:03:00,42.9,25.1,29.98,SW,230,0.0,3.0,49,0.01,,CLR,0.05,VWS V14.00,2013-01-19 20:03:00,
2013-01-19 15:08:00,43.1,24.3,29.98,SSW,207,0.0,2.0,47,0.01,,CLR,0.05,VWS V14.00,2013-01-19 20:08:00,
2013-01-19 15:14:00,43.1,24.8,29.98,South,182,1.0,4.0,48,0.01,,CLR,0.05,VWS V14.00,2013-01-19 20:14:00,
2013-01-19 15:19:00,43.2,24.4,29.98,SW,233,2.0,2.0,47,0.01,,CLR,0.05,VWS V14.00,2013-01-19 20:19:00,
2013-01-19 15:24:00,43.1,23.7,29.98,SSW,205,2.0,4.0,46,0.02,,CLR,0.06,VWS V14.00,2013-01-19 20:24:00,
2013-01-19 15:29:00,43.3,24.4,29.98,SSW,198,1.0,3.0,47,0.02,,CLR,0.06,VWS V14.00,2013-01-19 20:29:00,
2013-01-19 15:34:00,43.3,24.4,29.98,South,178,0.0,5.0,47,0.01,,CLR,0.06,VWS V14.00,2013-01-19 20:34:00,
2013-01-19 15:39:00,43.2,24.9,29.98,SE,144,1.0,2.0,48,0.01,,CLR,0.06,VWS V14.00,2013-01-19 20:39:00,
2013-01-19 15:44:00,43.2,24.4,29.98,SW,219,0.0,3.0,47,0.01,,CLR,0.06,VWS V14.00,2013-01-19 20:44:00,
2013-01-19 15:50:00,43.1,24.3,29.97,SE,130,1.0,4.0,47,0.01,,CLR,0.06,VWS V14.00,2013-01-19 20:50:00,
2013-01-19 15:55:00,43.1,24.3,29.97,South,191,0.0,3.0,47,0.01,,CLR,0.06,VWS V14.00,2013-01-19 20:55:00,
2013-01-19 16:00:00,43.2,24.9,29.97,West,269,1.0,1.0,48,0.01,,CLR,0.06,VWS V14.00,2013-01-19 21:00:00,
2013-01-19 16:05:00,43.1,24.8,29.97,West,271,2.0,2.0,48,0.01,,SCT120,0.06,VWS V14.00,2013-01-19 21:05:00,
2013-01-19 16:10:00,42.9,24.1,29.97,SE,146,1.0,2.0,47,0.01,,SCT120,0.06,VWS V14.00,2013-01-19 21:10:00,
2013-01-19 16:15:00,42.9,24.1,29.97,South,170,3.0,5.0,47,0.01,,SCT120,0.06,VWS V14.00,2013-01-19 21:15:00,
2013-01-19 16:20:00,42.8,24.0,29.97,SSW,198,1.0,2.0,47,0.01,,SCT120,0.06,VWS V14.00,2013-01-19 21:20:00,
2013-01-19 16:25:00,42.6,24.3,29.97,SSW,202,2.0,5.0,48,0.01,,SCT120,0.06,VWS V14.00,2013-01-19 21:25:00,
2013-01-19 16:30:00,42.5,24.2,29.97,WSW,240,2.0,2.0,48,0.01,,SCT120,0.06,VWS V14.00,2013-01-19 21:30:00,
2013-01-19 16:37:00,42.2,23.9,29.97,SSW,202,2.0,8.0,48,0.00,,SCT120,0.06,VWS V14.00,2013-01-19 21:37:00,
2013-01-19 16:42:00,42.1,24.3,29.97,SE,131,0.0,4.0,49,0.00,,SCT120,0.06,VWS V14.00,2013-01-19 21:42:00,
2013-01-19 16:47:00,41.6,23.9,29.97,WSW,240,3.0,3.0,49,0.00,,BKN120,0.06,VWS V14.00,2013-01-19 21:47:00,
2013-01-19 16:52:00,41.6,23.9,29.97,SW,231,0.0,1.0,49,0.00,,BKN120,0.06,VWS V14.00,2013-01-19 21:52:00,
2013-01-19 16:57:00,41.5,23.8,29.97,SW,234,4.0,6.0,49,0.00,,BKN120,0.06,VWS V14.00,2013-01-19 21:57:00,
2013-01-19 17:02:00,41.3,24.1,29.97,SW,225,0.0,1.0,50,0.00,,BKN120,0.06,VWS V14.00,2013-01-19 22:02:00,
2013-01-19 17:07:00,41.2,24.0,29.97,West,267,0.0,2.0,50,0.00,,BKN120,0.06,VWS V14.00,2013-01-19 22:07:00,
2013-01-19 17:13:00,41.2,24.0,29.97,South,178,0.0,2.0,50,0.00,,BKN120,0.06,VWS V14.00,2013-01-19 22:13:00,
2013-01-19 17:18:00,41.1,23.9,29.96,SSW,200,0.0,1.0,50,0.00,,BKN120,0.06,VWS V14.00,2013-01-19 22:18:00,
2013-01-19 17:23:00,41.1,23.9,29.96,East,86,2.0,3.0,50,0.00,,BKN120,0.06,VWS V14.00,2013-01-19 22:23:00,
2013-01-19 17:28:00,41.1,24.4,29.96,SE,141,2.0,2.0,51,0.00,,BKN120,0.06,VWS V14.00,2013-01-19 22:28:00,
2013-01-19 17:33:00,41.1,24.4,29.96,South,175,1.0,3.0,51,0.00,,BKN120,0.06,VWS V14.00,2013-01-19 22:33:00,
2013-01-19 17:38:00,40.9,24.2,29.96,SE,136,1.0,2.0,51,0.00,,BKN120,0.06,VWS V14.00,2013-01-19 22:38:00,
2013-01-19 17:43:00,40.9,24.2,29.96,South,169,0.0,1.0,51,0.00,,BKN120,0.06,VWS V14.00,2013-01-19 22:43:00,
2013-01-19 17:48:00,40.9,24.2,29.96,SE,146,1.0,3.0,51,0.00,,OVC120,0.06,VWS V14.00,2013-01-19 22:48:00,
2013-01-19 17:53:00,40.9,24.6,29.96,SSE,155,4.0,4.0,52,0.00,,OVC120,0.06,VWS V14.00,2013-01-19 22:53:00,
2013-01-19 17:58:00,40.9,24.2,29.96,SE,138,4.0,5.0,51,0.00,,OVC120,0.06,VWS V14.00,2013-01-19 22:58:00,
2013-01-19 18:03:00,41.1,24.4,29.96,SSE,153,1.0,1.0,51,0.00,,OVC120,0.06,VWS V14.00,2013-01-19 23:03:00,
2013-01-19 18:09:00,41.1,24.4,29.96,SSE,163,1.0,3.0,51,0.00,,OVC120,0.06,VWS V14.00,2013-01-19 23:09:00,
2013-01-19 18:14:00,41.2,24.5,29.96,SSE,159,0.0,1.0,51,0.00,,OVC120,0.06,VWS V14.00,2013-01-19 23:14:00,
2013-01-19 18:19:00,41.2,24.5,29.95,SE,130,1.0,1.0,51,0.00,,OVC120,0.06,VWS V14.00,2013-01-19 23:19:00,
2013-01-19 18:24:00,41.2,24.5,29.95,SE,132,0.0,3.0,51,0.00,,OVC120,0.06,VWS V14.00,2013-01-19 23:24:00,
2013-01-19 18:30:00,41.2,24.5,29.95,SE,145,0.0,1.0,51,0.00,,OVC120,0.06,VWS V14.00,2013-01-19 23:30:00,
2013-01-19 18:35:00,41.2,24.5,29.95,ESE,116,0.0,3.0,51,0.00,,OVC120,0.06,VWS V14.00,2013-01-19 23:35:00,
2013-01-19 18:43:00,41.2,24.5,29.95,ESE,120,1.0,3.0,51,0.00,,OVC120,0.06,VWS V14.00,2013-01-19 23:43:00,
2013-01-19 18:48:00,41.3,24.1,29.94,South,173,0.0,3.0,50,0.00,,CLR,0.06,VWS V14.00,2013-01-19 23:48:00,
2013-01-19 18:53:00,41.6,23.9,29.94,SSE,167,5.0,5.0,49,0.00,,CLR,0.06,VWS V14.00,2013-01-19 23:53:00,
2013-01-19 18:59:00,41.8,24.1,29.94,SE,132,2.0,3.0,49,0.00,,CLR,0.06,VWS V14.00,2013-01-19 23:59:00,
2013-01-19 19:04:00,42.1,24.3,29.94,SSE,166,1.0,6.0,49,0.00,,CLR,0.06,VWS V14.00,2013-01-20 00:04:00,
2013-01-19 19:10:00,42.2,23.9,29.94,SW,218,3.0,5.0,48,0.00,,CLR,0.06,VWS V14.00,2013-01-20 00:10:00,
2013-01-19 19:15:00,42.3,24.0,29.94,SE,124,2.0,5.0,48,0.00,,CLR,0.06,VWS V14.00,2013-01-20 00:15:00,
2013-01-19 19:20:00,42.6,23.8,29.94,SE,142,2.0,4.0,47,0.00,,FEW120,0.06,VWS V14.00,2013-01-20 00:20:00,
2013-01-19 19:25:00,42.8,24.0,29.94,ESE,120,4.0,6.0,47,0.00,,FEW120,0.06,VWS V14.00,2013-01-20 00:25:00,
2013-01-19 19:30:00,42.9,24.1,29.93,ESE,123,3.0,5.0,47,0.00,,FEW120,0.06,VWS V14.00,2013-01-20 00:30:00,
2013-01-19 19:35:00,42.9,24.1,29.93,SE,146,4.0,7.0,47,0.00,,FEW120,0.06,VWS V14.00,2013-01-20 00:35:00,
2013-01-19 19:41:00,43.1,23.7,29.93,SE,144,5.0,9.0,46,0.00,,FEW120,0.06,VWS V14.00,2013-01-20 00:41:00,
2013-01-19 19:45:00,43.2,23.8,29.93,SSE,155,5.0,7.0,46,0.00,,FEW120,0.06,VWS V14.00,2013-01-20 00:45:00,
2013-01-19 19:51:00,43.2,23.8,29.93,SSE,166,4.0,5.0,46,0.00,,FEW120,0.06,VWS V14.00,2013-01-20 00:51:00,
2013-01-19 19:56:00,43.2,24.4,29.93,SE,128,2.0,4.0,47,0.00,,FEW120,0.06,VWS V14.00,2013-01-20 00:56:00,
2013-01-19 20:01:00,43.2,23.8,29.92,SSE,163,1.0,5.0,46,0.00,,FEW120,0.06,VWS V14.00,2013-01-20 01:01:00,
2013-01-19 20:07:00,43.2,24.4,29.92,SSE,165,2.0,5.0,47,0.01,,FEW120,0.07,VWS V14.00,2013-01-20 01:07:00,
2013-01-19 20:12:00,43.2,24.4,29.92,SSE,160,1.0,4.0,47,0.01,,FEW120,0.07,VWS V14.00,2013-01-20 01:12:00,
2013-01-19 20:17:00,43.3,24.4,29.91,SE,140,2.0,4.0,47,0.01,,FEW120,0.07,VWS V14.00,2013-01-20 01:17:00,
2013-01-19 20:22:00,43.3,24.4,29.91,SSE,160,2.0,5.0,47,0.01,,FEW120,0.07,VWS V14.00,2013-01-20 01:22:00,
2013-01-19 20:27:00,43.2,24.9,29.91,SSE,163,0.0,4.0,48,0.01,,FEW120,0.07,VWS V14.00,2013-01-20 01:27:00,
2013-01-19 20:32:00,43.1,25.3,29.91,SSE,161,1.0,1.0,49,0.01,,FEW120,0.07,VWS V14.00,2013-01-20 01:32:00,
2013-01-19 20:37:00,42.9,25.1,29.91,SE,145,1.0,1.0,49,0.01,,FEW120,0.07,VWS V14.00,2013-01-20 01:37:00,
2013-01-19 20:42:00,42.9,25.1,29.91,SSE,148,1.0,3.0,49,0.01,,FEW120,0.07,VWS V14.00,2013-01-20 01:42:00,
2013-01-19 20:48:00,42.8,25.5,29.90,SSE,168,1.0,2.0,50,0.01,,FEW120,0.07,VWS V14.00,2013-01-20 01:48:00,
2013-01-19 20:53:00,42.9,25.1,29.90,SE,130,2.0,6.0,49,0.01,,FEW120,0.07,VWS V14.00,2013-01-20 01:53:00,
2013-01-19 20:58:00,42.9,25.1,29.90,SSE,148,0.0,5.0,49,0.01,,FEW120,0.07,VWS V14.00,2013-01-20 01:58:00,
2013-01-19 21:03:00,42.9,25.6,29.89,SSE,159,1.0,2.0,50,0.01,,FEW120,0.07,VWS V14.00,2013-01-20 02:03:00,
2013-01-19 21:08:00,42.8,25.5,29.89,South,170,2.0,4.0,50,0.01,,FEW120,0.07,VWS V14.00,2013-01-20 02:08:00,
2013-01-19 21:13:00,42.8,25.5,29.89,SSE,166,2.0,5.0,50,0.01,,FEW120,0.07,VWS V14.00,2013-01-20 02:13:00,
2013-01-19 21:18:00,42.8,25.9,29.89,SW,231,2.0,6.0,51,0.00,,FEW120,0.07,VWS V14.00,2013-01-20 02:18:00,
2013-01-19 21:23:00,42.8,25.5,29.89,SSE,148,2.0,2.0,50,0.00,,FEW120,0.07,VWS V14.00,2013-01-20 02:23:00,
2013-01-19 21:28:00,42.8,25.9,29.89,SE,146,1.0,5.0,51,0.00,,FEW120,0.07,VWS V14.00,2013-01-20 02:28:00,
2013-01-19 21:34:00,42.6,25.8,29.88,ESE,112,4.0,6.0,51,0.00,,FEW120,0.07,VWS V14.00,2013-01-20 02:34:00,
2013-01-19 21:39:00,42.6,25.8,29.88,SSE,161,4.0,9.0,51,0.00,,FEW120,0.07,VWS V14.00,2013-01-20 02:39:00,
2013-01-19 21:44:00,42.6,26.2,29.88,South,171,5.0,11.0,52,0.00,,FEW120,0.07,VWS V14.00,2013-01-20 02:44:00,
2013-01-19 21:49:00,42.6,26.2,29.88,South,171,0.0,2.0,52,0.00,,CLR,0.07,VWS V14.00,2013-01-20 02:49:00,
2013-01-19 21:54:00,42.5,26.1,29.88,SE,144,2.0,4.0,52,0.00,,CLR,0.07,VWS V14.00,2013-01-20 02:54:00,
2013-01-19 22:00:00,42.3,25.9,29.87,ESE,121,3.0,7.0,52,0.00,,CLR,0.07,VWS V14.00,2013-01-20 03:00:00,
2013-01-19 22:05:00,42.3,25.9,29.87,SSE,148,2.0,3.0,52,0.00,,CLR,0.07,VWS V14.00,2013-01-20 03:05:00,
2013-01-19 22:10:00,42.2,26.3,29.87,SSE,163,3.0,6.0,53,0.00,,CLR,0.07,VWS V14.00,2013-01-20 03:10:00,
2013-01-19 22:15:00,42.1,26.2,29.87,South,175,1.0,6.0,53,0.00,,CLR,0.07,VWS V14.00,2013-01-20 03:15:00,
2013-01-19 22:20:00,42.1,26.2,29.87,SSE,149,2.0,2.0,53,0.00,,CLR,0.07,VWS V14.00,2013-01-20 03:20:00,
2013-01-19 22:25:00,41.9,26.0,29.87,SSE,155,0.0,1.0,53,0.00,,CLR,0.07,VWS V14.00,2013-01-20 03:25:00,
2013-01-19 22:30:00,41.8,26.4,29.86,SSE,165,4.0,6.0,54,0.00,,CLR,0.07,VWS V14.00,2013-01-20 03:30:00,
2013-01-19 22:35:00,41.8,26.4,29.86,SSE,155,1.0,1.0,54,0.00,,CLR,0.07,VWS V14.00,2013-01-20 03:35:00,
2013-01-19 22:42:00,41.6,26.2,29.86,SE,142,1.0,3.0,54,0.00,,CLR,0.07,VWS V14.00,2013-01-20 03:42:00,
2013-01-19 22:47:00,41.6,26.2,29.85,SE,126,2.0,3.0,54,0.00,,FEW110,0.07,VWS V14.00,2013-01-20 03:47:00,
2013-01-19 22:52:00,41.5,26.5,29.85,SSE,153,1.0,7.0,55,0.00,,FEW110,0.07,VWS V14.00,2013-01-20 03:52:00,
2013-01-19 22:57:00,41.6,26.2,29.85,South,183,2.0,5.0,54,0.00,,FEW110,0.07,VWS V14.00,2013-01-20 03:57:00,
2013-01-19 23:02:00,41.5,26.5,29.84,ESE,120,1.0,3.0,55,0.00,,FEW110,0.07,VWS V14.00,2013-01-20 04:02:00,
2013-01-19 23:07:00,41.3,26.4,29.84,South,171,0.0,1.0,55,0.00,,FEW110,0.07,VWS V14.00,2013-01-20 04:07:00,
2013-01-19 23:12:00,41.3,26.4,29.84,SSE,149,1.0,3.0,55,0.00,,FEW110,0.07,VWS V14.00,2013-01-20 04:12:00,
2013-01-19 23:18:00,41.3,26.8,29.83,SSE,150,2.0,6.0,56,0.00,,FEW110,0.07,VWS V14.00,2013-01-20 04:18:00,
2013-01-19 23:23:00,41.3,26.8,29.83,SSW,212,0.0,3.0,56,0.00,,FEW110,0.07,VWS V14.00,2013-01-20 04:23:00,
2013-01-19 23:28:00,41.3,26.4,29.83,South,180,0.0,5.0,55,0.00,,FEW110,0.07,VWS V14.00,2013-01-20 04:28:00,
2013-01-19 23:33:00,41.3,26.4,29.83,South,182,1.0,5.0,55,0.00,,FEW110,0.07,VWS V14.00,2013-01-20 04:33:00,
2013-01-19 23:38:00,41.2,26.7,29.83,SSE,160,2.0,6.0,56,0.00,,FEW110,0.07,VWS V14.00,2013-01-20 04:38:00,
2013-01-19 23:43:00,41.1,26.6,29.83,SE,128,5.0,6.0,56,0.00,,FEW110,0.07,VWS V14.00,2013-01-20 04:43:00,
2013-01-19 23:48:00,41.1,26.6,29.82,SE,129,4.0,4.0,56,0.00,,CLR,0.07,VWS V14.00,2013-01-20 04:48:00,
2013-01-19 23:53:00,40.9,26.9,29.82,SSE,168,1.0,3.0,57,0.00,,CLR,0.07,VWS V14.00,2013-01-20 04:53:00,
2013-01-19 23:59:00,40.9,26.9,29.82,SW,221,2.0,4.0,57,0.00,,CLR,0.07,VWS V14.00,2013-01-20 04:59:00,